sensor_id;sensor_type;location;lat;lon;timestamp;temperature;humidity
78345;DHT22;67620;51.134;6.548;2023-04-06T00:01:02;3.70;62.60
78345;DHT22;67620;51.134;6.548;2023-04-06T00:03:28;3.70;62.90
78345;DHT22;67620;51.134;6.548;2023-04-06T00:05:53;3.60;63.20
78345;DHT22;67620;51.134;6.548;2023-04-06T00:08:19;3.70;63.20
78345;DHT22;67620;51.134;6.548;2023-04-06T00:10:46;3.60;63.40
78345;DHT22;67620;51.134;6.548;2023-04-06T00:13:12;3.60;63.40
78345;DHT22;67620;51.134;6.548;2023-04-06T00:15:38;3.60;63.40
78345;DHT22;67620;51.134;6.548;2023-04-06T00:18:03;3.50;63.50
78345;DHT22;67620;51.134;6.548;2023-04-06T00:20:29;3.50;63.40
78345;DHT22;67620;51.134;6.548;2023-04-06T00:22:54;3.50;63.50
78345;DHT22;67620;51.134;6.548;2023-04-06T00:25:20;3.40;63.70
78345;DHT22;67620;51.134;6.548;2023-04-06T00:27:46;3.40;63.60
78345;DHT22;67620;51.134;6.548;2023-04-06T00:30:12;3.40;63.50
78345;DHT22;67620;51.134;6.548;2023-04-06T00:32:37;3.40;63.40
78345;DHT22;67620;51.134;6.548;2023-04-06T00:35:03;3.40;63.50
78345;DHT22;67620;51.134;6.548;2023-04-06T00:37:29;3.30;63.50
78345;DHT22;67620;51.134;6.548;2023-04-06T00:39:55;3.30;63.50
78345;DHT22;67620;51.134;6.548;2023-04-06T00:42:21;3.20;63.60
78345;DHT22;67620;51.134;6.548;2023-04-06T00:44:59;3.30;63.60
78345;DHT22;67620;51.134;6.548;2023-04-06T00:47:25;3.20;63.50
78345;DHT22;67620;51.134;6.548;2023-04-06T00:49:52;3.20;63.70
78345;DHT22;67620;51.134;6.548;2023-04-06T00:52:18;3.20;63.80
78345;DHT22;67620;51.134;6.548;2023-04-06T00:54:45;3.20;63.80
78345;DHT22;67620;51.134;6.548;2023-04-06T00:57:12;3.20;63.90
78345;DHT22;67620;51.134;6.548;2023-04-06T00:59:38;3.20;63.90
78345;DHT22;67620;51.134;6.548;2023-04-06T01:02:04;3.20;63.80
78345;DHT22;67620;51.134;6.548;2023-04-06T01:04:30;3.10;63.90
78345;DHT22;67620;51.134;6.548;2023-04-06T01:06:56;3.10;63.80
78345;DHT22;67620;51.134;6.548;2023-04-06T01:09:22;3.10;63.70
78345;DHT22;67620;51.134;6.548;2023-04-06T01:11:47;3.10;63.60
78345;DHT22;67620;51.134;6.548;2023-04-06T01:14:13;3.10;63.80
78345;DHT22;67620;51.134;6.548;2023-04-06T01:16:39;3.10;64.10
78345;DHT22;67620;51.134;6.548;2023-04-06T01:19:11;3.10;63.90
78345;DHT22;67620;51.134;6.548;2023-04-06T01:21:37;3.00;64.00
78345;DHT22;67620;51.134;6.548;2023-04-06T01:24:04;3.00;63.80
78345;DHT22;67620;51.134;6.548;2023-04-06T01:26:29;3.00;64.20
78345;DHT22;67620;51.134;6.548;2023-04-06T01:28:55;2.90;64.30
78345;DHT22;67620;51.134;6.548;2023-04-06T01:31:21;3.00;64.00
78345;DHT22;67620;51.134;6.548;2023-04-06T01:33:47;3.00;64.00
78345;DHT22;67620;51.134;6.548;2023-04-06T01:36:13;2.90;64.20
78345;DHT22;67620;51.134;6.548;2023-04-06T01:38:38;2.90;64.30
78345;DHT22;67620;51.134;6.548;2023-04-06T01:41:04;2.90;64.30
78345;DHT22;67620;51.134;6.548;2023-04-06T01:43:30;2.90;64.50
78345;DHT22;67620;51.134;6.548;2023-04-06T01:45:55;2.90;64.50
78345;DHT22;67620;51.134;6.548;2023-04-06T01:48:21;2.80;64.50
78345;DHT22;67620;51.134;6.548;2023-04-06T01:50:46;2.80;64.80
78345;DHT22;67620;51.134;6.548;2023-04-06T01:53:12;2.80;65.00
78345;DHT22;67620;51.134;6.548;2023-04-06T01:55:38;2.80;65.00
78345;DHT22;67620;51.134;6.548;2023-04-06T01:58:03;2.80;64.90
78345;DHT22;67620;51.134;6.548;2023-04-06T02:00:29;2.80;64.60
78345;DHT22;67620;51.134;6.548;2023-04-06T02:02:54;2.80;64.60
78345;DHT22;67620;51.134;6.548;2023-04-06T02:05:20;2.70;64.90
78345;DHT22;67620;51.134;6.548;2023-04-06T02:07:46;2.70;64.60
78345;DHT22;67620;51.134;6.548;2023-04-06T02:10:13;2.70;64.70
78345;DHT22;67620;51.134;6.548;2023-04-06T02:12:39;2.70;64.90
78345;DHT22;67620;51.134;6.548;2023-04-06T02:15:05;2.60;64.80
78345;DHT22;67620;51.134;6.548;2023-04-06T02:17:30;2.60;64.50
78345;DHT22;67620;51.134;6.548;2023-04-06T02:19:56;2.70;64.90
78345;DHT22;67620;51.134;6.548;2023-04-06T02:22:21;2.60;64.80
78345;DHT22;67620;51.134;6.548;2023-04-06T02:24:47;2.60;65.10
78345;DHT22;67620;51.134;6.548;2023-04-06T02:27:14;2.60;65.10
78345;DHT22;67620;51.134;6.548;2023-04-06T02:29:39;2.60;65.00
78345;DHT22;67620;51.134;6.548;2023-04-06T02:32:05;2.60;65.60
78345;DHT22;67620;51.134;6.548;2023-04-06T02:34:31;2.60;65.50
78345;DHT22;67620;51.134;6.548;2023-04-06T02:36:56;2.50;65.70
78345;DHT22;67620;51.134;6.548;2023-04-06T02:39:22;2.50;65.70
78345;DHT22;67620;51.134;6.548;2023-04-06T02:41:48;2.50;65.70
78345;DHT22;67620;51.134;6.548;2023-04-06T02:44:13;2.50;65.80
78345;DHT22;67620;51.134;6.548;2023-04-06T02:46:39;2.50;66.10
78345;DHT22;67620;51.134;6.548;2023-04-06T02:49:05;2.50;66.20
78345;DHT22;67620;51.134;6.548;2023-04-06T02:51:31;2.60;66.80
78345;DHT22;67620;51.134;6.548;2023-04-06T02:53:56;2.60;66.70
78345;DHT22;67620;51.134;6.548;2023-04-06T02:56:22;2.50;66.40
78345;DHT22;67620;51.134;6.548;2023-04-06T02:58:47;2.50;66.10
78345;DHT22;67620;51.134;6.548;2023-04-06T03:01:13;2.40;65.80
78345;DHT22;67620;51.134;6.548;2023-04-06T03:03:39;2.40;65.90
78345;DHT22;67620;51.134;6.548;2023-04-06T03:06:04;2.40;66.30
78345;DHT22;67620;51.134;6.548;2023-04-06T03:08:30;2.40;66.30
78345;DHT22;67620;51.134;6.548;2023-04-06T03:10:55;2.40;66.30
78345;DHT22;67620;51.134;6.548;2023-04-06T03:13:21;2.40;66.20
78345;DHT22;67620;51.134;6.548;2023-04-06T03:15:47;2.30;65.90
78345;DHT22;67620;51.134;6.548;2023-04-06T03:18:12;2.30;66.10
78345;DHT22;67620;51.134;6.548;2023-04-06T03:20:38;2.30;66.20
78345;DHT22;67620;51.134;6.548;2023-04-06T03:23:04;2.30;66.20
78345;DHT22;67620;51.134;6.548;2023-04-06T03:25:29;2.30;66.30
78345;DHT22;67620;51.134;6.548;2023-04-06T03:27:57;2.30;66.40
78345;DHT22;67620;51.134;6.548;2023-04-06T03:30:23;2.30;66.20
78345;DHT22;67620;51.134;6.548;2023-04-06T03:32:49;2.30;66.30
78345;DHT22;67620;51.134;6.548;2023-04-06T03:35:14;2.30;66.30
78345;DHT22;67620;51.134;6.548;2023-04-06T03:37:40;2.20;66.30
78345;DHT22;67620;51.134;6.548;2023-04-06T03:40:06;2.20;66.50
78345;DHT22;67620;51.134;6.548;2023-04-06T03:42:32;2.20;66.30
78345;DHT22;67620;51.134;6.548;2023-04-06T03:44:58;2.20;66.40
78345;DHT22;67620;51.134;6.548;2023-04-06T03:47:24;2.20;66.20
78345;DHT22;67620;51.134;6.548;2023-04-06T03:49:49;2.20;66.20
78345;DHT22;67620;51.134;6.548;2023-04-06T03:52:15;2.10;66.40
78345;DHT22;67620;51.134;6.548;2023-04-06T03:54:41;2.10;66.10
78345;DHT22;67620;51.134;6.548;2023-04-06T03:57:06;2.10;66.40
78345;DHT22;67620;51.134;6.548;2023-04-06T03:59:32;2.10;66.40
78345;DHT22;67620;51.134;6.548;2023-04-06T04:01:57;2.00;66.20
78345;DHT22;67620;51.134;6.548;2023-04-06T04:04:23;2.10;66.30
78345;DHT22;67620;51.134;6.548;2023-04-06T04:06:48;2.10;66.50
78345;DHT22;67620;51.134;6.548;2023-04-06T04:09:14;2.10;66.60
78345;DHT22;67620;51.134;6.548;2023-04-06T04:11:40;2.00;66.50
78345;DHT22;67620;51.134;6.548;2023-04-06T04:14:06;2.00;66.60
78345;DHT22;67620;51.134;6.548;2023-04-06T04:16:31;2.00;66.80
78345;DHT22;67620;51.134;6.548;2023-04-06T04:18:57;2.00;67.00
78345;DHT22;67620;51.134;6.548;2023-04-06T04:21:24;2.00;67.40
78345;DHT22;67620;51.134;6.548;2023-04-06T04:23:51;1.90;67.80
78345;DHT22;67620;51.134;6.548;2023-04-06T04:26:18;1.90;67.60
78345;DHT22;67620;51.134;6.548;2023-04-06T04:28:43;2.00;67.40
78345;DHT22;67620;51.134;6.548;2023-04-06T04:31:09;2.00;67.40
78345;DHT22;67620;51.134;6.548;2023-04-06T04:33:34;2.00;67.60
78345;DHT22;67620;51.134;6.548;2023-04-06T04:36:00;2.00;67.60
78345;DHT22;67620;51.134;6.548;2023-04-06T04:38:26;2.00;67.80
78345;DHT22;67620;51.134;6.548;2023-04-06T04:40:51;2.00;67.90
78345;DHT22;67620;51.134;6.548;2023-04-06T04:43:17;2.10;67.70
78345;DHT22;67620;51.134;6.548;2023-04-06T04:45:42;2.00;67.50
78345;DHT22;67620;51.134;6.548;2023-04-06T04:48:08;2.00;67.70
78345;DHT22;67620;51.134;6.548;2023-04-06T04:50:34;2.00;68.00
78345;DHT22;67620;51.134;6.548;2023-04-06T04:52:59;2.00;68.10
78345;DHT22;67620;51.134;6.548;2023-04-06T04:55:25;2.00;68.20
78345;DHT22;67620;51.134;6.548;2023-04-06T04:57:51;2.00;68.40
78345;DHT22;67620;51.134;6.548;2023-04-06T05:00:17;2.10;68.20
78345;DHT22;67620;51.134;6.548;2023-04-06T05:02:42;2.20;68.30
78345;DHT22;67620;51.134;6.548;2023-04-06T05:05:08;2.10;68.40
78345;DHT22;67620;51.134;6.548;2023-04-06T05:07:34;2.10;68.50
78345;DHT22;67620;51.134;6.548;2023-04-06T05:10:00;2.20;68.30
78345;DHT22;67620;51.134;6.548;2023-04-06T05:12:26;2.10;68.70
78345;DHT22;67620;51.134;6.548;2023-04-06T05:14:53;2.10;68.80
78345;DHT22;67620;51.134;6.548;2023-04-06T05:17:19;2.10;69.00
78345;DHT22;67620;51.134;6.548;2023-04-06T05:19:45;2.10;68.80
78345;DHT22;67620;51.134;6.548;2023-04-06T05:22:11;2.20;68.70
78345;DHT22;67620;51.134;6.548;2023-04-06T05:24:36;2.20;68.80
78345;DHT22;67620;51.134;6.548;2023-04-06T05:27:02;2.20;68.90
78345;DHT22;67620;51.134;6.548;2023-04-06T05:29:29;2.20;69.10
78345;DHT22;67620;51.134;6.548;2023-04-06T05:31:54;2.20;69.10
78345;DHT22;67620;51.134;6.548;2023-04-06T05:34:20;2.20;69.20
78345;DHT22;67620;51.134;6.548;2023-04-06T05:36:46;2.30;69.10
78345;DHT22;67620;51.134;6.548;2023-04-06T05:39:12;2.30;69.30
78345;DHT22;67620;51.134;6.548;2023-04-06T05:41:38;2.30;69.50
78345;DHT22;67620;51.134;6.548;2023-04-06T05:44:04;2.40;69.60
78345;DHT22;67620;51.134;6.548;2023-04-06T05:46:29;2.40;69.70
78345;DHT22;67620;51.134;6.548;2023-04-06T05:48:55;2.50;69.70
78345;DHT22;67620;51.134;6.548;2023-04-06T05:51:21;2.50;70.00
78345;DHT22;67620;51.134;6.548;2023-04-06T05:53:47;2.50;70.30
78345;DHT22;67620;51.134;6.548;2023-04-06T05:56:12;2.60;70.50
78345;DHT22;67620;51.134;6.548;2023-04-06T05:58:38;2.60;70.90
78345;DHT22;67620;51.134;6.548;2023-04-06T06:01:04;2.70;70.80
78345;DHT22;67620;51.134;6.548;2023-04-06T06:03:30;2.70;70.90
78345;DHT22;67620;51.134;6.548;2023-04-06T06:06:00;2.70;70.70
78345;DHT22;67620;51.134;6.548;2023-04-06T06:08:26;2.80;70.40
78345;DHT22;67620;51.134;6.548;2023-04-06T06:10:52;2.80;70.70
78345;DHT22;67620;51.134;6.548;2023-04-06T06:13:18;2.90;70.80
78345;DHT22;67620;51.134;6.548;2023-04-06T06:15:43;2.90;70.80
78345;DHT22;67620;51.134;6.548;2023-04-06T06:18:09;3.00;71.10
78345;DHT22;67620;51.134;6.548;2023-04-06T06:20:34;3.00;71.30
78345;DHT22;67620;51.134;6.548;2023-04-06T06:23:00;3.10;71.60
78345;DHT22;67620;51.134;6.548;2023-04-06T06:25:25;3.20;71.50
78345;DHT22;67620;51.134;6.548;2023-04-06T06:27:51;3.20;72.60
78345;DHT22;67620;51.134;6.548;2023-04-06T06:30:17;3.30;72.40
78345;DHT22;67620;51.134;6.548;2023-04-06T06:32:42;3.30;72.40
78345;DHT22;67620;51.134;6.548;2023-04-06T06:35:08;3.40;72.70
78345;DHT22;67620;51.134;6.548;2023-04-06T06:37:34;3.50;73.00
78345;DHT22;67620;51.134;6.548;2023-04-06T06:39:59;3.50;71.80
78345;DHT22;67620;51.134;6.548;2023-04-06T06:42:25;3.50;71.90
78345;DHT22;67620;51.134;6.548;2023-04-06T06:44:51;3.60;73.10
78345;DHT22;67620;51.134;6.548;2023-04-06T06:47:17;3.60;72.50
78345;DHT22;67620;51.134;6.548;2023-04-06T06:49:42;3.70;73.10
78345;DHT22;67620;51.134;6.548;2023-04-06T06:52:08;3.70;72.70
78345;DHT22;67620;51.134;6.548;2023-04-06T06:54:34;3.70;72.10
78345;DHT22;67620;51.134;6.548;2023-04-06T06:56:59;3.80;72.10
78345;DHT22;67620;51.134;6.548;2023-04-06T06:59:25;3.80;72.00
78345;DHT22;67620;51.134;6.548;2023-04-06T07:01:51;3.90;72.40
78345;DHT22;67620;51.134;6.548;2023-04-06T07:04:17;3.90;71.60
78345;DHT22;67620;51.134;6.548;2023-04-06T07:06:42;4.00;72.00
78345;DHT22;67620;51.134;6.548;2023-04-06T07:09:08;4.00;72.60
78345;DHT22;67620;51.134;6.548;2023-04-06T07:11:34;4.10;72.10
78345;DHT22;67620;51.134;6.548;2023-04-06T07:14:00;4.20;72.90
78345;DHT22;67620;51.134;6.548;2023-04-06T07:16:25;4.20;72.90
78345;DHT22;67620;51.134;6.548;2023-04-06T07:18:51;4.30;72.10
78345;DHT22;67620;51.134;6.548;2023-04-06T07:21:16;4.30;72.20
78345;DHT22;67620;51.134;6.548;2023-04-06T07:23:42;4.30;72.70
78345;DHT22;67620;51.134;6.548;2023-04-06T07:26:08;4.40;73.10
78345;DHT22;67620;51.134;6.548;2023-04-06T07:28:34;4.40;71.80
78345;DHT22;67620;51.134;6.548;2023-04-06T07:31:00;4.50;72.10
78345;DHT22;67620;51.134;6.548;2023-04-06T07:33:25;4.50;72.20
78345;DHT22;67620;51.134;6.548;2023-04-06T07:35:55;4.60;71.80
78345;DHT22;67620;51.134;6.548;2023-04-06T07:38:21;4.70;72.40
78345;DHT22;67620;51.134;6.548;2023-04-06T07:40:46;4.90;72.90
78345;DHT22;67620;51.134;6.548;2023-04-06T07:43:12;4.90;72.20
78345;DHT22;67620;51.134;6.548;2023-04-06T07:45:38;5.00;72.50
78345;DHT22;67620;51.134;6.548;2023-04-06T07:48:03;5.00;72.10
78345;DHT22;67620;51.134;6.548;2023-04-06T07:50:29;5.10;73.30
78345;DHT22;67620;51.134;6.548;2023-04-06T07:52:55;5.20;72.90
78345;DHT22;67620;51.134;6.548;2023-04-06T07:55:20;5.30;71.20
78345;DHT22;67620;51.134;6.548;2023-04-06T07:57:46;5.30;71.80
78345;DHT22;67620;51.134;6.548;2023-04-06T08:00:12;5.40;71.60
78345;DHT22;67620;51.134;6.548;2023-04-06T08:02:38;5.40;70.70
78345;DHT22;67620;51.134;6.548;2023-04-06T08:05:05;5.50;70.40
78345;DHT22;67620;51.134;6.548;2023-04-06T08:07:31;5.60;70.60
78345;DHT22;67620;51.134;6.548;2023-04-06T08:09:56;5.70;70.70
78345;DHT22;67620;51.134;6.548;2023-04-06T08:12:22;5.80;70.60
78345;DHT22;67620;51.134;6.548;2023-04-06T08:14:47;5.80;70.10
78345;DHT22;67620;51.134;6.548;2023-04-06T08:17:13;5.90;70.40
78345;DHT22;67620;51.134;6.548;2023-04-06T08:19:39;5.90;70.90
78345;DHT22;67620;51.134;6.548;2023-04-06T08:22:04;6.00;71.40
78345;DHT22;67620;51.134;6.548;2023-04-06T08:24:30;6.10;71.00
78345;DHT22;67620;51.134;6.548;2023-04-06T08:26:57;6.10;69.90
78345;DHT22;67620;51.134;6.548;2023-04-06T08:29:23;6.20;69.00
78345;DHT22;67620;51.134;6.548;2023-04-06T08:31:49;6.30;68.80
78345;DHT22;67620;51.134;6.548;2023-04-06T08:34:14;6.40;69.30
78345;DHT22;67620;51.134;6.548;2023-04-06T08:36:41;6.50;67.60
78345;DHT22;67620;51.134;6.548;2023-04-06T08:39:06;6.60;67.30
78345;DHT22;67620;51.134;6.548;2023-04-06T08:41:32;6.60;68.30
78345;DHT22;67620;51.134;6.548;2023-04-06T08:44:00;6.70;68.30
78345;DHT22;67620;51.134;6.548;2023-04-06T08:46:26;6.70;68.80
78345;DHT22;67620;51.134;6.548;2023-04-06T08:49:00;6.70;68.40
78345;DHT22;67620;51.134;6.548;2023-04-06T08:51:27;6.80;67.80
78345;DHT22;67620;51.134;6.548;2023-04-06T08:53:53;6.80;69.30
78345;DHT22;67620;51.134;6.548;2023-04-06T08:56:22;6.90;69.80
78345;DHT22;67620;51.134;6.548;2023-04-06T08:58:48;6.90;69.10
78345;DHT22;67620;51.134;6.548;2023-04-06T09:01:17;7.00;68.70
78345;DHT22;67620;51.134;6.548;2023-04-06T09:03:44;7.10;68.40
78345;DHT22;67620;51.134;6.548;2023-04-06T09:06:10;7.10;69.00
78345;DHT22;67620;51.134;6.548;2023-04-06T09:08:39;7.10;68.60
78345;DHT22;67620;51.134;6.548;2023-04-06T09:11:06;7.20;68.00
78345;DHT22;67620;51.134;6.548;2023-04-06T09:13:32;7.30;69.00
78345;DHT22;67620;51.134;6.548;2023-04-06T09:16:09;7.40;68.50
78345;DHT22;67620;51.134;6.548;2023-04-06T09:18:34;7.50;68.50
78345;DHT22;67620;51.134;6.548;2023-04-06T09:21:05;7.60;67.70
78345;DHT22;67620;51.134;6.548;2023-04-06T09:23:31;7.70;66.10
78345;DHT22;67620;51.134;6.548;2023-04-06T09:28:44;7.90;65.90
78345;DHT22;67620;51.134;6.548;2023-04-06T09:31:14;7.90;65.70
78345;DHT22;67620;51.134;6.548;2023-04-06T09:33:42;8.00;65.20
78345;DHT22;67620;51.134;6.548;2023-04-06T09:36:08;8.10;64.90
78345;DHT22;67620;51.134;6.548;2023-04-06T09:38:53;8.20;64.80
78345;DHT22;67620;51.134;6.548;2023-04-06T09:43:50;8.20;64.90
78345;DHT22;67620;51.134;6.548;2023-04-06T09:46:16;8.30;65.30
78345;DHT22;67620;51.134;6.548;2023-04-06T09:48:43;8.40;64.50
78345;DHT22;67620;51.134;6.548;2023-04-06T09:51:11;8.40;63.60
78345;DHT22;67620;51.134;6.548;2023-04-06T09:53:42;8.50;64.10
78345;DHT22;67620;51.134;6.548;2023-04-06T09:56:12;8.60;64.60
78345;DHT22;67620;51.134;6.548;2023-04-06T09:58:40;8.70;60.70
78345;DHT22;67620;51.134;6.548;2023-04-06T10:01:15;8.70;61.80
78345;DHT22;67620;51.134;6.548;2023-04-06T10:03:50;8.80;62.80
78345;DHT22;67620;51.134;6.548;2023-04-06T10:06:22;8.80;59.50
78345;DHT22;67620;51.134;6.548;2023-04-06T10:08:50;8.90;58.90
78345;DHT22;67620;51.134;6.548;2023-04-06T10:11:17;8.90;58.90
78345;DHT22;67620;51.134;6.548;2023-04-06T10:13:44;8.90;58.50
78345;DHT22;67620;51.134;6.548;2023-04-06T10:16:13;8.90;56.50
78345;DHT22;67620;51.134;6.548;2023-04-06T10:18:44;8.90;56.20
78345;DHT22;67620;51.134;6.548;2023-04-06T10:21:14;8.90;55.70
78345;DHT22;67620;51.134;6.548;2023-04-06T10:23:49;9.00;56.30
78345;DHT22;67620;51.134;6.548;2023-04-06T10:26:17;9.00;56.70
78345;DHT22;67620;51.134;6.548;2023-04-06T10:28:46;9.10;55.00
78345;DHT22;67620;51.134;6.548;2023-04-06T10:31:12;9.10;55.90
78345;DHT22;67620;51.134;6.548;2023-04-06T10:33:38;9.10;57.80
78345;DHT22;67620;51.134;6.548;2023-04-06T10:36:22;9.10;58.50
78345;DHT22;67620;51.134;6.548;2023-04-06T10:39:00;9.20;58.90
78345;DHT22;67620;51.134;6.548;2023-04-06T10:41:55;9.30;58.30
78345;DHT22;67620;51.134;6.548;2023-04-06T10:44:31;9.30;58.00
78345;DHT22;67620;51.134;6.548;2023-04-06T10:47:16;9.30;59.30
78345;DHT22;67620;51.134;6.548;2023-04-06T10:49:42;9.40;58.30
78345;DHT22;67620;51.134;6.548;2023-04-06T10:52:08;9.30;57.30
78345;DHT22;67620;51.134;6.548;2023-04-06T10:54:34;9.40;58.80
78345;DHT22;67620;51.134;6.548;2023-04-06T10:57:03;9.30;58.40
78345;DHT22;67620;51.134;6.548;2023-04-06T10:59:29;9.40;58.80
78345;DHT22;67620;51.134;6.548;2023-04-06T11:01:55;9.50;60.90
78345;DHT22;67620;51.134;6.548;2023-04-06T11:04:21;9.60;60.50
78345;DHT22;67620;51.134;6.548;2023-04-06T11:06:48;9.70;61.40
78345;DHT22;67620;51.134;6.548;2023-04-06T11:09:27;9.60;60.20
78345;DHT22;67620;51.134;6.548;2023-04-06T11:11:53;9.70;59.30
78345;DHT22;67620;51.134;6.548;2023-04-06T11:14:19;9.70;58.80
78345;DHT22;67620;51.134;6.548;2023-04-06T11:16:47;9.80;57.60
78345;DHT22;67620;51.134;6.548;2023-04-06T11:19:16;9.80;57.70
78345;DHT22;67620;51.134;6.548;2023-04-06T11:21:47;9.90;59.20
78345;DHT22;67620;51.134;6.548;2023-04-06T11:24:25;10.00;55.20
78345;DHT22;67620;51.134;6.548;2023-04-06T11:26:52;10.00;56.20
78345;DHT22;67620;51.134;6.548;2023-04-06T11:29:20;10.10;57.60
78345;DHT22;67620;51.134;6.548;2023-04-06T11:31:53;10.10;55.40
78345;DHT22;67620;51.134;6.548;2023-04-06T11:34:21;10.20;56.80
78345;DHT22;67620;51.134;6.548;2023-04-06T11:36:55;10.20;55.70
78345;DHT22;67620;51.134;6.548;2023-04-06T11:39:23;10.20;55.90
78345;DHT22;67620;51.134;6.548;2023-04-06T11:41:54;10.30;55.30
78345;DHT22;67620;51.134;6.548;2023-04-06T11:44:53;10.30;53.90
78345;DHT22;67620;51.134;6.548;2023-04-06T11:47:19;10.30;53.80
78345;DHT22;67620;51.134;6.548;2023-04-06T11:49:48;10.30;55.00
78345;DHT22;67620;51.134;6.548;2023-04-06T11:52:24;10.30;53.70
78345;DHT22;67620;51.134;6.548;2023-04-06T11:54:52;10.20;54.30
78345;DHT22;67620;51.134;6.548;2023-04-06T11:57:19;10.20;55.50
78345;DHT22;67620;51.134;6.548;2023-04-06T11:59:45;10.20;57.00
78345;DHT22;67620;51.134;6.548;2023-04-06T12:02:11;10.20;55.80
78345;DHT22;67620;51.134;6.548;2023-04-06T12:04:37;10.20;56.10
78345;DHT22;67620;51.134;6.548;2023-04-06T12:07:03;10.20;57.10
78345;DHT22;67620;51.134;6.548;2023-04-06T12:09:30;10.20;57.10
78345;DHT22;67620;51.134;6.548;2023-04-06T12:11:56;10.20;55.80
78345;DHT22;67620;51.134;6.548;2023-04-06T12:14:22;10.20;58.00
78345;DHT22;67620;51.134;6.548;2023-04-06T12:16:48;10.20;58.50
78345;DHT22;67620;51.134;6.548;2023-04-06T12:19:13;10.20;57.30
78345;DHT22;67620;51.134;6.548;2023-04-06T12:21:39;10.20;56.00
78345;DHT22;67620;51.134;6.548;2023-04-06T12:24:06;10.20;55.50
78345;DHT22;67620;51.134;6.548;2023-04-06T12:26:32;10.20;56.80
78345;DHT22;67620;51.134;6.548;2023-04-06T12:29:01;10.20;57.40
78345;DHT22;67620;51.134;6.548;2023-04-06T12:31:32;10.20;57.10
78345;DHT22;67620;51.134;6.548;2023-04-06T12:33:59;10.20;58.20
78345;DHT22;67620;51.134;6.548;2023-04-06T12:36:25;10.20;56.00
78345;DHT22;67620;51.134;6.548;2023-04-06T12:38:50;10.10;57.20
78345;DHT22;67620;51.134;6.548;2023-04-06T12:41:17;10.10;58.40
78345;DHT22;67620;51.134;6.548;2023-04-06T12:43:43;10.10;57.10
78345;DHT22;67620;51.134;6.548;2023-04-06T12:46:10;10.10;57.50
78345;DHT22;67620;51.134;6.548;2023-04-06T12:48:36;10.00;58.50
78345;DHT22;67620;51.134;6.548;2023-04-06T12:51:04;10.00;57.70
78345;DHT22;67620;51.134;6.548;2023-04-06T12:53:30;10.00;58.50
78345;DHT22;67620;51.134;6.548;2023-04-06T12:55:56;10.00;59.00
78345;DHT22;67620;51.134;6.548;2023-04-06T12:58:23;10.00;60.30
78345;DHT22;67620;51.134;6.548;2023-04-06T13:00:49;10.00;59.80
78345;DHT22;67620;51.134;6.548;2023-04-06T13:03:15;10.00;62.10
78345;DHT22;67620;51.134;6.548;2023-04-06T13:05:48;9.90;66.50
78345;DHT22;67620;51.134;6.548;2023-04-06T13:08:15;9.80;65.10
78345;DHT22;67620;51.134;6.548;2023-04-06T13:10:48;9.80;67.30
78345;DHT22;67620;51.134;6.548;2023-04-06T13:13:13;9.80;68.90
78345;DHT22;67620;51.134;6.548;2023-04-06T13:15:39;9.70;65.70
78345;DHT22;67620;51.134;6.548;2023-04-06T13:18:05;9.80;66.50
78345;DHT22;67620;51.134;6.548;2023-04-06T13:20:31;9.70;64.80
78345;DHT22;67620;51.134;6.548;2023-04-06T13:22:56;9.70;64.90
78345;DHT22;67620;51.134;6.548;2023-04-06T13:25:22;9.70;66.30
78345;DHT22;67620;51.134;6.548;2023-04-06T13:27:47;9.70;66.60
78345;DHT22;67620;51.134;6.548;2023-04-06T13:30:14;9.70;65.50
78345;DHT22;67620;51.134;6.548;2023-04-06T13:32:40;9.70;64.30
78345;DHT22;67620;51.134;6.548;2023-04-06T13:35:06;9.70;64.30
78345;DHT22;67620;51.134;6.548;2023-04-06T13:37:33;9.70;63.80
78345;DHT22;67620;51.134;6.548;2023-04-06T13:39:59;9.70;65.50
78345;DHT22;67620;51.134;6.548;2023-04-06T13:42:25;9.70;66.80
78345;DHT22;67620;51.134;6.548;2023-04-06T13:44:51;9.70;66.90
78345;DHT22;67620;51.134;6.548;2023-04-06T13:47:18;9.60;64.60
78345;DHT22;67620;51.134;6.548;2023-04-06T13:49:44;9.70;65.40
78345;DHT22;67620;51.134;6.548;2023-04-06T13:52:10;9.70;64.80
78345;DHT22;67620;51.134;6.548;2023-04-06T13:54:36;9.60;65.20
78345;DHT22;67620;51.134;6.548;2023-04-06T13:57:02;9.60;65.70
78345;DHT22;67620;51.134;6.548;2023-04-06T13:59:34;9.60;67.20
78345;DHT22;67620;51.134;6.548;2023-04-06T14:02:04;9.50;66.80
78345;DHT22;67620;51.134;6.548;2023-04-06T14:04:30;9.40;68.30
78345;DHT22;67620;51.134;6.548;2023-04-06T14:06:57;9.40;68.80
78345;DHT22;67620;51.134;6.548;2023-04-06T14:09:23;9.40;68.70
78345;DHT22;67620;51.134;6.548;2023-04-06T14:11:49;9.30;68.20
78345;DHT22;67620;51.134;6.548;2023-04-06T14:14:15;9.30;68.10
78345;DHT22;67620;51.134;6.548;2023-04-06T14:16:42;9.30;68.90
78345;DHT22;67620;51.134;6.548;2023-04-06T14:19:10;9.20;68.90
78345;DHT22;67620;51.134;6.548;2023-04-06T14:21:38;9.20;70.50
78345;DHT22;67620;51.134;6.548;2023-04-06T14:24:06;9.20;71.00
78345;DHT22;67620;51.134;6.548;2023-04-06T14:26:32;9.20;71.50
78345;DHT22;67620;51.134;6.548;2023-04-06T14:29:02;9.10;71.50
78345;DHT22;67620;51.134;6.548;2023-04-06T14:31:28;9.10;72.80
78345;DHT22;67620;51.134;6.548;2023-04-06T14:33:53;9.10;73.20
78345;DHT22;67620;51.134;6.548;2023-04-06T14:36:19;9.00;73.70
78345;DHT22;67620;51.134;6.548;2023-04-06T14:38:45;9.00;74.10
78345;DHT22;67620;51.134;6.548;2023-04-06T14:41:19;8.90;74.00
78345;DHT22;67620;51.134;6.548;2023-04-06T14:43:46;9.00;74.10
78345;DHT22;67620;51.134;6.548;2023-04-06T14:46:12;9.00;74.10
78345;DHT22;67620;51.134;6.548;2023-04-06T14:48:38;9.00;74.70
78345;DHT22;67620;51.134;6.548;2023-04-06T14:51:05;9.00;74.90
78345;DHT22;67620;51.134;6.548;2023-04-06T14:53:32;9.00;75.20
78345;DHT22;67620;51.134;6.548;2023-04-06T14:56:00;9.00;75.60
78345;DHT22;67620;51.134;6.548;2023-04-06T14:58:26;9.00;75.20
78345;DHT22;67620;51.134;6.548;2023-04-06T15:00:58;9.00;74.90
78345;DHT22;67620;51.134;6.548;2023-04-06T15:03:28;8.90;73.60
78345;DHT22;67620;51.134;6.548;2023-04-06T15:05:55;8.90;72.50
78345;DHT22;67620;51.134;6.548;2023-04-06T15:08:24;8.80;72.80
78345;DHT22;67620;51.134;6.548;2023-04-06T15:10:50;8.80;73.60
78345;DHT22;67620;51.134;6.548;2023-04-06T15:13:17;8.70;73.40
78345;DHT22;67620;51.134;6.548;2023-04-06T15:15:43;8.70;74.50
78345;DHT22;67620;51.134;6.548;2023-04-06T15:18:09;8.70;75.30
78345;DHT22;67620;51.134;6.548;2023-04-06T15:20:35;8.70;75.20
78345;DHT22;67620;51.134;6.548;2023-04-06T15:23:02;8.70;77.00
78345;DHT22;67620;51.134;6.548;2023-04-06T15:25:29;8.70;76.60
78345;DHT22;67620;51.134;6.548;2023-04-06T15:27:54;8.70;76.40
78345;DHT22;67620;51.134;6.548;2023-04-06T15:30:20;8.60;76.70
78345;DHT22;67620;51.134;6.548;2023-04-06T15:32:58;8.60;76.40
78345;DHT22;67620;51.134;6.548;2023-04-06T15:35:28;8.60;77.10
78345;DHT22;67620;51.134;6.548;2023-04-06T15:37:54;8.60;77.30
78345;DHT22;67620;51.134;6.548;2023-04-06T15:40:21;8.60;77.60
78345;DHT22;67620;51.134;6.548;2023-04-06T15:42:46;8.60;78.10
78345;DHT22;67620;51.134;6.548;2023-04-06T15:45:12;8.50;78.90
78345;DHT22;67620;51.134;6.548;2023-04-06T15:47:39;8.50;78.90